Time;durP1;ratioP1;P1;durP2;ratioP2;P2;SDS_P1;SDS_P2;PMS_P1;PMS_P2;Temp;Humidity;BMP_temperature;BMP_pressure;BME280_temperature;BME280_humidity;BME280_pressure;Samples;Min_cycle;Max_cycle;Signal;HPM_P1;HPM_P2
2021/01/12 06:02:59;;;;;;;5.53;2.70;;;2.40;91.30;;;;;;6292365;22;20023;-80
2021/01/12 06:05:27;;;;;;;7.03;2.85;;;2.50;91.40;;;;;;6266850;22;20020;-81
2021/01/12 06:07:54;;;;;;;5.68;2.75;;;2.40;91.40;;;;;;6292579;22;20023;-81
2021/01/12 06:10:22;;;;;;;5.05;2.55;;;2.40;91.40;;;;;;6291927;22;21438;-80
2021/01/12 06:12:56;;;;;;;6.50;2.63;;;2.50;91.50;;;;;;6263439;22;20049;-82
2021/01/12 06:15:28;;;;;;;5.75;2.80;;;2.50;91.40;;;;;;6266802;22;20020;-81
2021/01/12 06:18:05;;;;;;;5.95;3.03;;;2.50;91.30;;;;;;6265752;22;20020;-81
2021/01/12 06:20:56;;;;;;;6.70;3.42;;;2.70;91.30;;;;;;6273047;22;20003;-81
2021/01/12 06:25:59;;;;;;;5.68;2.40;;;2.60;91.40;;;;;;6357807;22;20013;-81
2021/01/12 06:28:26;;;;;;;5.00;2.63;;;2.70;91.30;;;;;;6353716;22;20015;-79
2021/01/12 06:30:53;;;;;;;5.70;2.72;;;2.80;91.20;;;;;;6330333;22;20022;-81
2021/01/12 06:33:21;;;;;;;5.13;2.40;;;2.70;91.30;;;;;;6332351;22;20019;-81
2021/01/12 06:35:51;;;;;;;5.47;2.80;;;2.80;91.30;;;;;;6332931;22;20019;-81
2021/01/12 06:38:20;;;;;;;5.65;2.55;;;2.70;91.40;;;;;;6365453;22;20014;-82
2021/01/12 06:40:53;;;;;;;6.13;2.50;;;2.70;91.80;;;;;;6340953;22;20025;-81
2021/01/12 06:43:24;;;;;;;5.30;2.78;;;2.90;91.50;;;;;;6366595;22;20002;-81
2021/01/12 06:45:53;;;;;;;5.80;2.88;;;2.90;91.40;;;;;;6367305;22;20018;-81
2021/01/12 06:48:20;;;;;;;5.50;2.55;;;2.90;91.60;;;;;;6356364;22;20023;-81
2021/01/12 06:50:48;;;;;;;4.88;2.47;;;2.90;91.80;;;;;;6306493;22;20019;-81
2021/01/12 06:53:16;;;;;;;5.80;2.92;;;3.00;91.70;;;;;;6308405;22;20014;-83
2021/01/12 06:55:43;;;;;;;4.55;2.08;;;3.00;91.80;;;;;;6352963;22;20052;-80
2021/01/12 07:01:00;;;;;;;4.03;2.00;;;3.00;92.40;;;;;;6311181;22;20031;-81
2021/01/12 07:32:03;;;;;;;7.20;3.85;;;3.60;92.10;;;;;;6284139;22;20023;-80
2021/01/12 07:34:36;;;;;;;8.25;4.35;;;3.70;91.40;;;;;;6330159;22;20003;-81
2021/01/12 07:37:05;;;;;;;7.97;4.45;;;3.80;90.80;;;;;;6328089;22;20014;-81
2021/01/12 07:39:33;;;;;;;10.25;4.85;;;3.60;90.80;;;;;;6301592;22;20019;-82
2021/01/12 07:42:00;;;;;;;8.20;4.65;;;3.40;90.90;;;;;;6328872;22;20034;-82
2021/01/12 07:44:27;;;;;;;8.35;4.47;;;3.50;90.80;;;;;;6328433;22;20094;-81
2021/01/12 07:46:57;;;;;;;8.52;4.25;;;3.50;91.00;;;;;;6306428;22;20050;-83
2021/01/12 07:49:26;;;;;;;7.65;4.00;;;3.50;91.00;;;;;;6333198;22;20038;-82
2021/01/12 07:51:53;;;;;;;8.32;4.18;;;3.60;91.10;;;;;;6296553;22;20017;-81
2021/01/12 07:54:25;;;;;;;6.80;3.58;;;3.50;91.40;;;;;;6324281;22;20031;-81
2021/01/12 07:56:54;;;;;;;6.90;3.38;;;3.60;91.70;;;;;;6296138;22;20090;-81
2021/01/12 07:59:22;;;;;;;6.88;3.40;;;3.50;91.90;;;;;;6321621;22;20019;-81
2021/01/12 08:01:49;;;;;;;6.45;3.13;;;3.50;91.90;;;;;;6322493;22;20058;-81
2021/01/12 08:04:16;;;;;;;7.10;3.50;;;3.60;92.00;;;;;;6270334;22;20019;-81
2021/01/12 08:06:46;;;;;;;6.75;3.00;;;3.50;92.00;;;;;;6295169;22;20071;-81
2021/01/12 08:09:21;;;;;;;6.88;2.97;;;3.60;92.10;;;;;;6325052;22;20050;-81
2021/01/12 08:11:48;;;;;;;6.38;2.75;;;3.60;92.20;;;;;;6305387;22;20023;-81
2021/01/12 08:14:15;;;;;;;5.80;2.72;;;3.60;92.60;;;;;;6326506;22;20098;-81
2021/01/12 08:16:46;;;;;;;5.85;2.72;;;3.60;92.60;;;;;;6302875;22;20026;-81
2021/01/12 08:19:13;;;;;;;5.93;2.42;;;3.60;92.80;;;;;;6323243;22;20023;-81
2021/01/12 08:21:43;;;;;;;5.25;2.40;;;3.70;92.90;;;;;;6330457;22;20027;-82
2021/01/12 08:24:11;;;;;;;4.15;1.75;;;3.60;93.30;;;;;;6278005;22;20030;-82
2021/01/12 08:26:45;;;;;;;4.15;1.90;;;3.70;93.50;;;;;;6303825;22;20023;-82
2021/01/12 08:29:11;;;;;;;4.47;1.50;;;3.70;93.40;;;;;;6306900;22;20095;-82
2021/01/12 08:31:45;;;;;;;3.63;1.42;;;3.80;93.30;;;;;;6329907;22;20006;-81
2021/01/12 08:34:19;;;;;;;3.13;1.30;;;3.80;93.30;;;;;;6331085;22;20023;-81
2021/01/12 08:36:49;;;;;;;2.75;1.10;;;3.80;93.40;;;;;;6336250;22;19999;-82
2021/01/12 09:33:48;;;;;;;3.95;1.92;;;3.80;93.80;;;;;;6319183;22;20041;-83
2021/01/12 09:39:27;;;;;;;5.30;2.92;;;3.90;93.70;;;;;;6334004;22;20081;-82
2021/01/12 09:57:28;;;;;;;5.75;2.60;;;3.80;94.40;;;;;;6341015;22;20006;-83
2021/01/12 09:59:56;;;;;;;5.38;2.70;;;3.80;94.40;;;;;;6336016;22;20006;-83
2021/01/12 10:02:23;;;;;;;6.53;2.78;;;3.70;94.60;;;;;;6337759;22;20023;-81
2021/01/12 10:04:50;;;;;;;5.20;2.60;;;3.80;94.60;;;;;;6362985;22;20019;-81
2021/01/12 10:07:21;;;;;;;5.72;2.70;;;3.90;94.80;;;;;;6362297;22;20029;-81
2021/01/12 10:09:57;;;;;;;4.70;2.50;;;3.80;94.90;;;;;;6363134;22;20015;-82
2021/01/12 10:12:25;;;;;;;3.80;1.95;;;3.70;95.10;;;;;;6338492;22;20033;-79
2021/01/12 10:14:57;;;;;;;4.13;1.90;;;3.80;95.20;;;;;;6365891;22;19998;-82
2021/01/12 10:17:54;;;;;;;4.63;2.10;;;3.70;95.30;;;;;;6365406;22;20014;-81
2021/01/12 10:23:09;;;;;;;5.25;2.03;;;3.80;95.60;;;;;;6361411;22;20092;-81
2021/01/12 10:25:36;;;;;;;6.38;1.92;;;3.70;95.70;;;;;;6365275;22;20002;-81
2021/01/12 10:28:04;;;;;;;4.43;1.88;;;3.80;95.80;;;;;;6366111;22;20010;-81
2021/01/12 10:30:33;;;;;;;3.70;1.70;;;3.80;96.10;;;;;;6360747;22;20019;-82
2021/01/12 10:33:00;;;;;;;3.97;1.67;;;4.00;96.40;;;;;;6364612;22;20320;-81
2021/01/12 10:35:28;;;;;;;4.13;1.83;;;3.80;96.70;;;;;;6362182;22;20022;-81
2021/01/12 10:37:57;;;;;;;4.25;1.75;;;3.70;96.90;;;;;;6366358;22;20002;-82
2021/01/12 10:40:24;;;;;;;4.03;1.83;;;3.80;97.50;;;;;;6337867;22;20002;-83
2021/01/12 10:42:52;;;;;;;4.03;1.85;;;3.60;97.70;;;;;;6366573;22;20003;-81
2021/01/12 10:45:19;;;;;;;4.15;1.70;;;3.50;98.20;;;;;;6360695;22;20003;-82
2021/01/12 10:47:47;;;;;;;5.53;2.20;;;3.60;98.20;;;;;;6363003;22;20010;-82
2021/01/12 10:50:16;;;;;;;5.68;1.75;;;3.60;98.60;;;;;;6334345;22;20011;-81
2021/01/12 10:52:44;;;;;;;3.90;1.75;;;3.50;98.90;;;;;;6364900;22;20011;-82
2021/01/12 10:55:12;;;;;;;4.50;1.60;;;3.30;99.40;;;;;;6367335;22;19999;-81
2021/01/12 10:57:43;;;;;;;4.55;1.77;;;3.40;99.20;;;;;;6367323;22;20003;-83
2021/01/12 11:00:12;;;;;;;4.35;1.63;;;3.40;99.50;;;;;;6340961;22;20030;-82
2021/01/12 11:02:39;;;;;;;4.05;1.90;;;3.30;99.50;;;;;;6364148;22;20021;-81
2021/01/12 11:05:10;;;;;;;3.67;1.60;;;3.30;99.50;;;;;;6363403;22;20029;-82
2021/01/12 11:07:40;;;;;;;3.55;1.48;;;3.20;99.90;;;;;;6338448;22;20044;-81
2021/01/12 11:10:10;;;;;;;3.33;1.30;;;3.30;99.90;;;;;;6337461;22;20015;-82
2021/01/12 11:12:37;;;;;;;2.92;1.30;;;3.40;99.90;;;;;;6364071;22;20018;-80
2021/01/12 11:15:07;;;;;;;3.92;1.30;;;3.30;99.90;;;;;;6364222;22;20018;-82
2021/01/12 11:17:34;;;;;;;3.42;1.30;;;3.10;99.90;;;;;;6365872;22;20019;-81
2021/01/12 11:20:03;;;;;;;2.63;1.00;;;3.20;99.90;;;;;;6365633;22;20003;-81
2021/01/12 11:25:31;;;;;;;2.65;1.00;;;3.20;99.90;;;;;;6364762;22;20066;-81
2021/01/12 11:27:58;;;;;;;2.42;0.95;;;3.20;99.90;;;;;;6364210;22;20024;-83
2021/01/12 11:30:26;;;;;;;2.72;1.00;;;3.20;99.90;;;;;;6331844;22;20014;-81
2021/01/12 11:32:55;;;;;;;2.70;1.00;;;3.20;99.90;;;;;;6359389;22;20007;-83
2021/01/12 11:50:57;;;;;;;2.75;1.10;;;3.00;99.90;;;;;;6310023;22;20030;-81
2021/01/12 11:53:24;;;;;;;2.67;1.20;;;3.00;99.90;;;;;;6362309;22;20071;-81
2021/01/12 11:55:51;;;;;;;3.70;1.27;;;3.00;99.90;;;;;;6364886;22;20006;-82
2021/01/12 11:58:18;;;;;;;2.78;0.90;;;3.20;99.90;;;;;;6366629;22;20053;-81
2021/01/12 12:00:46;;;;;;;2.90;1.20;;;3.00;99.90;;;;;;6316170;22;20003;-81
2021/01/12 12:03:13;;;;;;;2.67;1.00;;;3.00;99.90;;;;;;6340918;22;20045;-82
2021/01/12 12:05:40;;;;;;;3.05;1.30;;;3.00;99.90;;;;;;6339715;22;19998;-80
2021/01/12 12:08:08;;;;;;;3.13;1.35;;;3.00;99.90;;;;;;6337193;22;19999;-81
2021/01/12 19:01:28;;;;;;;2.90;1.20;;;3.50;99.90;;;;;;5107494;27;20332;-83
2021/01/12 20:13:54;;;;;;;3.00;1.30;;;3.20;99.90;;;;;;5226360;22;20056;-83
2021/01/12 20:16:28;;;;;;;3.70;1.40;;;3.10;99.90;;;;;;5073576;28;20049;-81
2021/01/12 20:18:58;;;;;;;2.95;1.30;;;3.10;99.90;;;;;;5052126;28;20114;-82
2021/01/12 20:21:26;;;;;;;2.38;1.10;;;3.20;99.90;;;;;;5059214;28;20033;-83
